Orbital elements of COSMOS 2251 DEB
| Launched | 15 June 1993 |
| Flight ended | – |
| Launch site | Plesetsk Missile and Space Complex, Russia |
| Owner | Commonwealth of Independent States (former USSR) |
| NORAD ID | 38060 |
| Date fetched |
Epoch osculation |
Inc. [°] |
Ecc. | RA asc node [hr] |
Arg Peri. [°] |
Mean anom [°] |
Mean motion [rev/day] |
Abs. mag |
| Date fetched |
Epoch osculation |
Inc. [°] |
Ecc. | RA asc node [hr] |
Arg Peri. [°] |
Mean anom [°] |
Mean motion [rev/day] |
Abs. mag |
| 2026 May 07 17:58 | 2026 May 01 23:46:59 | 74.0433 | 0.00579 | 1.7289 | 98.2845 | 262.4891 | 14.64612 | – |
| 2026 May 06 17:57 | 2026 May 01 23:46:59 | 74.0433 | 0.00579 | 1.7289 | 98.2845 | 262.4891 | 14.64612 | – |
| 2026 May 05 17:57 | 2026 May 01 23:46:59 | 74.0433 | 0.00579 | 1.7289 | 98.2845 | 262.4891 | 14.64612 | – |
| 2026 May 04 17:57 | 2026 Apr 30 11:43:04 | 74.0432 | 0.00579 | 1.9214 | 101.6125 | 262.4891 | 14.64612 | – |
| 2026 May 03 17:57 | 2026 Apr 30 11:43:04 | 74.0432 | 0.00579 | 1.9214 | 101.6125 | 262.4891 | 14.64612 | – |
| 2026 May 02 17:57 | 2026 Apr 30 11:43:04 | 74.0432 | 0.00579 | 1.9214 | 101.6125 | 262.4891 | 14.64612 | – |
| 2026 May 01 17:56 | 2026 Apr 30 11:43:04 | 74.0432 | 0.00579 | 1.9214 | 101.6125 | 262.4891 | 14.64612 | – |
| 2026 Apr 30 17:56 | 2026 Apr 30 11:43:04 | 74.0432 | 0.00579 | 1.9214 | 101.6125 | 262.4891 | 14.64612 | – |
| 2026 Apr 29 17:57 | 2026 Apr 24 04:53:47 | 74.0417 | 0.00578 | 2.7263 | 115.5688 | 262.4891 | 14.64612 | – |
| 2026 Apr 28 17:56 | 2026 Apr 24 04:53:47 | 74.0417 | 0.00578 | 2.7263 | 115.5688 | 262.4891 | 14.64612 | – |
| 2026 Apr 27 17:58 | 2026 Apr 24 04:53:47 | 74.0417 | 0.00578 | 2.7263 | 115.5688 | 262.4891 | 14.64612 | – |
| 2026 Apr 26 17:58 | 2026 Apr 24 04:53:47 | 74.0417 | 0.00578 | 2.7263 | 115.5688 | 262.4891 | 14.64612 | – |
| 2026 Apr 25 17:58 | 2026 Apr 24 04:53:47 | 74.0417 | 0.00578 | 2.7263 | 115.5688 | 262.4891 | 14.64612 | – |
| 2026 Apr 24 17:59 | 2026 Apr 24 04:53:47 | 74.0417 | 0.00578 | 2.7263 | 115.5688 | 262.4891 | 14.64612 | – |
| 2026 Apr 23 17:57 | 2026 Apr 18 02:59:26 | 74.0431 | 0.00580 | 3.5052 | 129.0801 | 262.4891 | 14.64612 | – |
| 2026 Apr 22 17:57 | 2026 Apr 18 02:59:26 | 74.0431 | 0.00580 | 3.5052 | 129.0801 | 262.4891 | 14.64612 | – |
| 2026 Apr 21 17:57 | 2026 Apr 18 02:59:26 | 74.0431 | 0.00580 | 3.5052 | 129.0801 | 262.4891 | 14.64612 | – |
| 2026 Apr 20 17:57 | 2026 Apr 18 02:59:26 | 74.0431 | 0.00580 | 3.5052 | 129.0801 | 262.4891 | 14.64612 | – |
| 2026 Apr 19 17:58 | 2026 Apr 18 02:59:26 | 74.0431 | 0.00580 | 3.5052 | 129.0801 | 262.4891 | 14.64612 | – |
| 2026 Apr 18 17:56 | 2026 Apr 13 03:18:50 | 74.0394 | 0.00582 | 4.1439 | 140.0946 | 262.4891 | 14.64612 | – |
| 2026 Apr 16 17:57 | 2026 Apr 13 03:18:50 | 74.0394 | 0.00582 | 4.1439 | 140.0946 | 262.4891 | 14.64612 | – |
| 2026 Apr 14 17:57 | 2026 Apr 13 03:18:50 | 74.0394 | 0.00582 | 4.1439 | 140.0946 | 262.4891 | 14.64612 | – |
| 2026 Apr 13 17:57 | 2026 Apr 13 03:18:50 | 74.0394 | 0.00582 | 4.1439 | 140.0946 | 262.4891 | 14.64612 | – |
| 2026 Apr 12 17:57 | 2026 Apr 06 15:34:07 | 74.0411 | 0.00583 | 4.9752 | 154.5372 | 262.4891 | 14.64612 | – |
| 2026 Apr 11 17:57 | 2026 Apr 06 15:34:07 | 74.0411 | 0.00583 | 4.9752 | 154.5372 | 262.4891 | 14.64612 | – |
| 2026 Apr 10 17:58 | 2026 Apr 06 15:34:07 | 74.0411 | 0.00583 | 4.9752 | 154.5372 | 262.4891 | 14.64612 | – |